Time;durP1;ratioP1;P1;durP2;ratioP2;P2;SDS_P1;SDS_P2;PMS_P1;PMS_P2;Temp;Humidity;BMP_temperature;BMP_pressure;BME280_temperature;BME280_humidity;BME280_pressure;Samples;Min_cycle;Max_cycle;Signal;HPM_P1;HPM_P2
2023/07/09 00:01:55;;;;;;;16.45;11.45;;;;;;;;;;5028028;28;20129;-72
2023/07/09 00:04:21;;;;;;;14.90;10.20;;;;;;;;;;5048058;28;20132;-71
2023/07/09 00:06:48;;;;;;;14.68;10.48;;;;;;;;;;5048100;28;20043;-72
2023/07/09 00:09:18;;;;;;;21.20;10.60;;;;;;;;;;5057038;28;20076;-70
2023/07/09 00:11:44;;;;;;;15.10;11.10;;;;;;;;;;5050940;28;20032;-71
2023/07/09 00:14:12;;;;;;;20.27;11.40;;;;;;;;;;5055352;28;20033;-71
2023/07/09 00:16:39;;;;;;;23.13;10.77;;;;;;;;;;5034633;28;20112;-71
2023/07/09 00:19:06;;;;;;;21.60;11.57;;;;;;;;;;5041184;28;20039;-71
2023/07/09 00:21:33;;;;;;;20.08;11.77;;;;;;;;;;5047410;28;20044;-69
2023/07/09 00:24:04;;;;;;;17.77;11.45;;;;;;;;;;5043149;28;20770;-71
2023/07/09 00:26:30;;;;;;;;;;;;;;;;;;5048954;28;20166;-71
2023/07/09 00:28:56;;;;;;;21.42;11.88;;;;;;;;;;5053648;28;19924;-72
2023/07/09 00:31:23;;;;;;;19.90;12.13;;;;;;;;;;5035505;28;20025;-71
2023/07/09 00:33:49;;;;;;;20.73;12.02;;;;;;;;;;5051702;28;20025;-71
2023/07/09 00:36:21;;;;;;;16.58;11.55;;;;;;;;;;5026130;28;20029;-70
2023/07/09 00:38:47;;;;;;;19.95;11.80;;;;;;;;;;5046226;28;20068;-69
2023/07/09 00:41:17;;;;;;;18.98;11.82;;;;;;;;;;5031560;28;20029;-70
2023/07/09 00:43:44;;;;;;;20.05;12.48;;;;;;;;;;5034087;28;20052;-70
2023/07/09 00:46:13;;;;;;;22.33;12.98;;;;;;;;;;5051990;28;20071;-70
2023/07/09 00:48:41;;;;;;;18.67;13.63;;;;;;;;;;5056802;28;20080;-69
2023/07/09 00:51:14;;;;;;;24.00;13.98;;;;;;;;;;5036501;28;20033;-70
2023/07/09 00:53:45;;;;;;;26.77;13.60;;;;;;;;;;5052741;28;20100;-71
2023/07/09 00:56:14;;;;;;;24.50;14.43;;;;;;;;;;5032638;28;20051;-71
2023/07/09 00:58:42;;;;;;;27.92;12.93;;;;;;;;;;5052587;28;20112;-71
2023/07/09 01:01:15;;;;;;;19.90;12.25;;;;;;;;;;5050271;28;20155;-71
2023/07/09 01:03:46;;;;;;;18.50;12.63;;;;;;;;;;5051671;28;20025;-71
2023/07/09 01:06:13;;;;;;;20.83;12.32;;;;;;;;;;5052589;28;20039;-71
2023/07/09 01:08:43;;;;;;;24.05;12.38;;;;;;;;;;5039839;28;20045;-71
2023/07/09 01:11:21;;;;;;;16.50;11.93;;;;;;;;;;5050863;28;20028;-70
2023/07/09 01:13:51;;;;;;;17.83;12.23;;;;;;;;;;5032465;28;20032;-71
2023/07/09 01:16:18;;;;;;;21.30;12.40;;;;;;;;;;5049818;28;20520;-71
2023/07/09 01:18:44;;;;;;;21.05;11.82;;;;;;;;;;5049885;28;20479;-70
2023/07/09 01:21:15;;;;;;;20.90;12.40;;;;;;;;;;5033528;28;20032;-71
2023/07/09 01:23:45;;;;;;;22.20;13.02;;;;;;;;;;5030972;28;20110;-71
2023/07/09 01:26:12;;;;;;;21.15;12.90;;;;;;;;;;5048638;28;20483;-71
2023/07/09 01:28:44;;;;;;;18.95;12.60;;;;;;;;;;5050770;28;20099;-70
2023/07/09 01:31:11;;;;;;;22.38;13.13;;;;;;;;;;5045803;28;20029;-72
2023/07/09 01:33:39;;;;;;;18.38;12.45;;;;;;;;;;5048854;28;20028;-71
2023/07/09 01:36:06;;;;;;;20.17;12.15;;;;;;;;;;5048042;28;20489;-71
2023/07/09 01:38:33;;;;;;;20.23;12.50;;;;;;;;;;5030830;28;20029;-71
2023/07/09 01:40:59;;;;;;;24.92;13.73;;;;;;;;;;5043210;28;20126;-71
2023/07/09 01:43:28;;;;;;;18.52;12.38;;;;;;;;;;5046856;28;20052;-71
2023/07/09 01:45:57;;;;;;;19.98;12.55;;;;;;;;;;5029666;28;20198;-71
2023/07/09 01:48:24;;;;;;;20.92;12.43;;;;;;;;;;5031979;28;20036;-69
2023/07/09 01:50:51;;;;;;;21.30;13.27;;;;;;;;;;5038645;28;20029;-70
2023/07/09 01:53:26;;;;;;;22.85;13.70;;;;;;;;;;5046194;28;20045;-71
2023/07/09 01:55:54;;;;;;;22.25;12.80;;;;;;;;;;5028293;28;20033;-71
2023/07/09 01:58:24;;;;;;;19.85;12.57;;;;;;;;;;5013616;28;20084;-71
2023/07/09 02:00:51;;;;;;;20.42;13.43;;;;;;;;;;5032884;28;20051;-71
2023/07/09 02:03:17;;;;;;;28.48;13.88;;;;;;;;;;5031296;28;20037;-71
2023/07/09 02:05:43;;;;;;;21.02;12.68;;;;;;;;;;5048119;28;20037;-71
2023/07/09 02:08:09;;;;;;;23.45;14.40;;;;;;;;;;5030224;28;20029;-71
2023/07/09 02:10:36;;;;;;;21.27;14.57;;;;;;;;;;5031221;28;20032;-71
2023/07/09 02:13:02;;;;;;;22.48;14.73;;;;;;;;;;5042105;28;20061;-71
2023/07/09 02:15:30;;;;;;;22.35;14.57;;;;;;;;;;5045326;28;20036;-70
2023/07/09 02:17:58;;;;;;;22.33;16.15;;;;;;;;;;5022577;28;20044;-70
2023/07/09 02:20:26;;;;;;;23.33;14.98;;;;;;;;;;5047419;28;20037;-72
2023/07/09 02:22:52;;;;;;;23.63;14.63;;;;;;;;;;5046234;28;20132;-71
2023/07/09 02:25:18;;;;;;;19.75;14.65;;;;;;;;;;5049141;28;20099;-69
2023/07/09 02:27:44;;;;;;;23.85;13.77;;;;;;;;;;5046435;28;20021;-71
2023/07/09 02:30:11;;;;;;;25.10;15.18;;;;;;;;;;5031010;28;20284;-71
2023/07/09 02:32:37;;;;;;;22.83;14.93;;;;;;;;;;5011409;28;20041;-69
2023/07/09 02:35:04;;;;;;;24.02;15.32;;;;;;;;;;5048337;28;20048;-71
2023/07/09 02:37:31;;;;;;;28.13;15.98;;;;;;;;;;5042646;28;20078;-70
2023/07/09 02:39:57;;;;;;;23.38;15.50;;;;;;;;;;5047835;28;20486;-71
2023/07/09 02:42:24;;;;;;;23.45;16.80;;;;;;;;;;5012395;28;20036;-70
2023/07/09 02:44:50;;;;;;;30.50;16.45;;;;;;;;;;5012127;28;20029;-69
2023/07/09 02:47:17;;;;;;;25.27;16.50;;;;;;;;;;5035625;28;20057;-69
2023/07/09 02:49:44;;;;;;;27.27;16.20;;;;;;;;;;5012252;28;20029;-71
2023/07/09 02:52:10;;;;;;;26.77;16.52;;;;;;;;;;5039486;28;20029;-71
2023/07/09 02:54:37;;;;;;;21.73;16.60;;;;;;;;;;5050025;28;20037;-71
2023/07/09 02:57:04;;;;;;;25.92;16.52;;;;;;;;;;5021835;28;20035;-69
2023/07/09 02:59:30;;;;;;;25.83;16.58;;;;;;;;;;5046660;28;20044;-70
2023/07/09 03:01:57;;;;;;;28.77;17.00;;;;;;;;;;5011068;28;20060;-72
2023/07/09 03:04:23;;;;;;;25.73;17.20;;;;;;;;;;5041508;28;20174;-70
2023/07/09 03:06:50;;;;;;;28.40;17.75;;;;;;;;;;5023758;28;20040;-70
2023/07/09 03:09:17;;;;;;;25.85;17.85;;;;;;;;;;5024379;28;20113;-70
2023/07/09 03:11:43;;;;;;;25.83;18.60;;;;;;;;;;5026387;28;20044;-71
2023/07/09 03:14:09;;;;;;;25.42;16.95;;;;;;;;;;5024626;28;20029;-71
2023/07/09 03:16:35;;;;;;;27.23;18.05;;;;;;;;;;5021250;28;20687;-70
2023/07/09 03:19:03;;;;;;;28.25;17.75;;;;;;;;;;5040896;28;20021;-70
2023/07/09 03:21:29;;;;;;;24.55;17.30;;;;;;;;;;5019427;28;20017;-71
2023/07/09 03:23:55;;;;;;;26.10;17.05;;;;;;;;;;5025010;28;20071;-70
2023/07/09 03:26:22;;;;;;;23.83;16.05;;;;;;;;;;5038859;28;20047;-71
2023/07/09 03:28:48;;;;;;;25.05;15.90;;;;;;;;;;5021527;28;20596;-71
2023/07/09 03:31:14;;;;;;;23.15;16.83;;;;;;;;;;5040788;28;20021;-70
2023/07/09 03:33:41;;;;;;;25.95;17.70;;;;;;;;;;5041350;28;20020;-71
2023/07/09 03:36:07;;;;;;;25.27;16.85;;;;;;;;;;5037325;28;20048;-71
2023/07/09 03:38:34;;;;;;;24.95;17.05;;;;;;;;;;5035419;28;20116;-71
2023/07/09 03:41:00;;;;;;;25.95;17.10;;;;;;;;;;5024892;28;20040;-71
2023/07/09 03:43:26;;;;;;;31.70;18.08;;;;;;;;;;5037520;28;20029;-71
2023/07/09 03:45:52;;;;;;;27.80;17.33;;;;;;;;;;5025322;28;20045;-71
2023/07/09 03:48:19;;;;;;;30.55;18.48;;;;;;;;;;5025152;28;20056;-70
2023/07/09 03:50:46;;;;;;;27.30;17.42;;;;;;;;;;5037413;28;20037;-71
2023/07/09 03:53:12;;;;;;;23.08;16.75;;;;;;;;;;5024346;28;20044;-71
2023/07/09 03:55:39;;;;;;;27.30;17.15;;;;;;;;;;5026136;28;20029;-70
2023/07/09 03:58:05;;;;;;;28.20;18.15;;;;;;;;;;5021379;28;20095;-70
2023/07/09 04:00:32;;;;;;;26.55;17.55;;;;;;;;;;5022230;28;20034;-70
2023/07/09 04:02:58;;;;;;;25.77;17.52;;;;;;;;;;5038059;28;20024;-70
2023/07/09 04:05:25;;;;;;;25.98;17.17;;;;;;;;;;5042927;28;20437;-70
2023/07/09 04:07:51;;;;;;;23.92;16.58;;;;;;;;;;5038683;28;20029;-70
2023/07/09 04:10:18;;;;;;;22.55;16.73;;;;;;;;;;5009435;28;20132;-70
2023/07/09 04:12:45;;;;;;;32.40;18.85;;;;;;;;;;5035816;28;20039;-70
2023/07/09 04:15:12;;;;;;;25.80;18.17;;;;;;;;;;5037613;28;20036;-70
2023/07/09 04:17:39;;;;;;;29.00;17.70;;;;;;;;;;5038499;28;20090;-70
2023/07/09 04:20:05;;;;;;;28.80;17.38;;;;;;;;;;5040512;28;20094;-71
2023/07/09 04:22:32;;;;;;;27.27;17.10;;;;;;;;;;5043700;28;20143;-71
2023/07/09 04:24:58;;;;;;;28.13;18.30;;;;;;;;;;5042335;28;20375;-71
2023/07/09 04:27:28;;;;;;;32.72;19.13;;;;;;;;;;5036520;28;20021;-70
2023/07/09 04:29:54;;;;;;;29.20;17.70;;;;;;;;;;5041291;28;20029;-71
2023/07/09 04:32:21;;;;;;;26.55;16.98;;;;;;;;;;5039360;28;20083;-70
2023/07/09 04:34:48;;;;;;;24.83;17.25;;;;;;;;;;5025878;28;20128;-71
2023/07/09 04:37:16;;;;;;;25.05;16.85;;;;;;;;;;5040852;28;20029;-71
2023/07/09 04:39:42;;;;;;;23.63;17.02;;;;;;;;;;5040119;28;20025;-71
2023/07/09 04:42:11;;;;;;;26.83;17.23;;;;;;;;;;5041271;28;20043;-71
2023/07/09 04:44:38;;;;;;;25.27;17.58;;;;;;;;;;5042616;28;20048;-70
2023/07/09 04:47:05;;;;;;;26.80;16.67;;;;;;;;;;5035131;28;20029;-71
2023/07/09 04:49:31;;;;;;;21.55;16.02;;;;;;;;;;5021277;28;20059;-71
2023/07/09 04:51:59;;;;;;;26.38;17.00;;;;;;;;;;5008318;28;20049;-71
2023/07/09 04:54:25;;;;;;;22.90;15.60;;;;;;;;;;5047428;28;20025;-71
2023/07/09 04:56:51;;;;;;;27.92;17.15;;;;;;;;;;5048094;28;20029;-71
2023/07/09 04:59:17;;;;;;;24.25;16.23;;;;;;;;;;5049861;28;20033;-71
2023/07/09 05:01:43;;;;;;;23.52;15.35;;;;;;;;;;5046635;28;20100;-71
2023/07/09 05:04:09;;;;;;;22.30;15.65;;;;;;;;;;5054950;28;20039;-71
2023/07/09 05:06:36;;;;;;;24.38;16.63;;;;;;;;;;5033162;28;20486;-71
2023/07/09 05:09:02;;;;;;;24.13;17.02;;;;;;;;;;5052618;28;20041;-71
2023/07/09 05:11:28;;;;;;;27.27;17.10;;;;;;;;;;5049181;28;20115;-72
2023/07/09 05:13:54;;;;;;;28.10;17.80;;;;;;;;;;5046743;28;20142;-72
2023/07/09 05:16:20;;;;;;;23.10;15.45;;;;;;;;;;5026835;28;20095;-70
2023/07/09 05:18:47;;;;;;;24.63;15.70;;;;;;;;;;5045487;28;20529;-71
2023/07/09 05:21:13;;;;;;;23.13;16.77;;;;;;;;;;5047080;28;20097;-71
2023/07/09 05:23:39;;;;;;;23.27;16.45;;;;;;;;;;5029693;28;20033;-70
2023/07/09 05:26:05;;;;;;;25.92;17.60;;;;;;;;;;5030694;28;20044;-70
2023/07/09 05:28:32;;;;;;;25.05;17.60;;;;;;;;;;5048178;28;20265;-71
2023/07/09 05:30:59;;;;;;;26.35;17.15;;;;;;;;;;5052096;28;20025;-71
2023/07/09 05:33:25;;;;;;;25.23;17.80;;;;;;;;;;5048409;28;20033;-71
2023/07/09 05:35:51;;;;;;;27.58;16.85;;;;;;;;;;5041137;28;20025;-73
2023/07/09 05:38:17;;;;;;;28.30;18.15;;;;;;;;;;5041769;28;20091;-71
2023/07/09 05:40:44;;;;;;;20.83;17.33;;;;;;;;;;5013098;28;20060;-70
2023/07/09 05:43:11;;;;;;;24.95;17.80;;;;;;;;;;5045162;28;20426;-72
2023/07/09 05:45:39;;;;;;;26.60;18.10;;;;;;;;;;5047371;28;20033;-70
2023/07/09 05:48:05;;;;;;;25.98;17.13;;;;;;;;;;5028738;28;20033;-71
2023/07/09 05:50:33;;;;;;;23.70;17.67;;;;;;;;;;5048372;28;20099;-70
2023/07/09 05:52:59;;;;;;;23.95;17.60;;;;;;;;;;5046100;28;20112;-71
2023/07/09 05:55:25;;;;;;;26.80;17.40;;;;;;;;;;5045331;28;20112;-72
2023/07/09 05:57:52;;;;;;;27.35;18.77;;;;;;;;;;5047317;28;20048;-71
2023/07/09 06:00:19;;;;;;;26.70;18.13;;;;;;;;;;5023982;28;20033;-70
2023/07/09 06:02:45;;;;;;;28.27;18.05;;;;;;;;;;5046758;28;20036;-71
2023/07/09 06:05:11;;;;;;;31.67;18.77;;;;;;;;;;5030700;28;20104;-71
2023/07/09 06:07:38;;;;;;;24.42;17.48;;;;;;;;;;5045627;28;20052;-71
2023/07/09 06:10:08;;;;;;;24.05;17.52;;;;;;;;;;5044065;28;20037;-71
2023/07/09 06:12:34;;;;;;;25.33;18.20;;;;;;;;;;5045305;28;20098;-71
2023/07/09 06:15:00;;;;;;;31.80;18.08;;;;;;;;;;5034976;28;20082;-71
2023/07/09 06:17:26;;;;;;;27.20;17.60;;;;;;;;;;5046822;28;20087;-71
2023/07/09 06:19:52;;;;;;;22.08;16.67;;;;;;;;;;5013145;28;20508;-70
2023/07/09 06:22:18;;;;;;;25.35;16.77;;;;;;;;;;5044623;28;20048;-71
2023/07/09 06:24:45;;;;;;;30.75;17.88;;;;;;;;;;5039961;28;20041;-72
2023/07/09 06:27:12;;;;;;;21.90;16.45;;;;;;;;;;5041158;28;20048;-70
2023/07/09 06:29:40;;;;;;;27.45;17.48;;;;;;;;;;5049618;28;20033;-71
2023/07/09 06:32:07;;;;;;;21.27;16.23;;;;;;;;;;5025673;28;20141;-71
2023/07/09 06:34:33;;;;;;;24.13;16.00;;;;;;;;;;5045467;28;20386;-69
2023/07/09 06:36:59;;;;;;;27.52;16.83;;;;;;;;;;5044238;28;20037;-69
2023/07/09 06:39:25;;;;;;;21.90;15.95;;;;;;;;;;5048774;28;20110;-71
2023/07/09 06:41:51;;;;;;;19.75;16.10;;;;;;;;;;5046578;28;20462;-70
2023/07/09 06:44:56;;;;;;;28.15;17.35;;;;;;;;;;5017212;28;20501;-71
2023/07/09 06:47:22;;;;;;;22.10;14.63;;;;;;;;;;5027690;28;20028;-71
2023/07/09 06:49:49;;;;;;;23.55;16.25;;;;;;;;;;5049032;28;20041;-72
2023/07/09 06:52:15;;;;;;;23.88;15.80;;;;;;;;;;5029681;28;20045;-71
2023/07/09 06:54:41;;;;;;;24.98;15.80;;;;;;;;;;5039323;28;20033;-71
2023/07/09 06:57:08;;;;;;;23.95;16.05;;;;;;;;;;5045783;28;20041;-70
2023/07/09 06:59:34;;;;;;;20.85;16.25;;;;;;;;;;5047189;28;20028;-70
2023/07/09 07:02:00;;;;;;;24.65;15.88;;;;;;;;;;5031227;28;20138;-71
2023/07/09 07:04:27;;;;;;;20.25;16.75;;;;;;;;;;5049976;28;20131;-70
2023/07/09 07:06:55;;;;;;;18.55;14.00;;;;;;;;;;5047314;28;20060;-70
2023/07/09 07:09:21;;;;;;;21.92;15.20;;;;;;;;;;5049909;28;20041;-71
2023/07/09 07:11:47;;;;;;;23.00;15.13;;;;;;;;;;5053137;28;20778;-69
2023/07/09 07:14:14;;;;;;;22.00;15.93;;;;;;;;;;5029022;28;20036;-70
2023/07/09 07:16:41;;;;;;;25.15;16.67;;;;;;;;;;5045855;28;20033;-71
2023/07/09 07:19:07;;;;;;;21.70;15.80;;;;;;;;;;5043794;28;20037;-70
2023/07/09 07:21:33;;;;;;;23.27;15.40;;;;;;;;;;5046489;28;20059;-70
2023/07/09 07:23:59;;;;;;;24.13;16.50;;;;;;;;;;5048834;28;20041;-69
2023/07/09 07:26:25;;;;;;;26.70;16.15;;;;;;;;;;5049924;28;20024;-69
2023/07/09 07:28:52;;;;;;;23.52;16.35;;;;;;;;;;5047089;28;20040;-70
2023/07/09 07:31:19;;;;;;;23.33;16.33;;;;;;;;;;5047249;28;20029;-70
2023/07/09 07:33:45;;;;;;;21.77;16.92;;;;;;;;;;5046580;28;20021;-70
2023/07/09 07:36:12;;;;;;;22.63;17.13;;;;;;;;;;5046497;28;20175;-69
2023/07/09 07:38:41;;;;;;;27.65;18.27;;;;;;;;;;5030116;28;20170;-70
2023/07/09 07:41:07;;;;;;;25.88;17.48;;;;;;;;;;5048268;28;20037;-71
2023/07/09 07:43:35;;;;;;;22.33;17.33;;;;;;;;;;5046852;28;20037;-70
2023/07/09 07:46:01;;;;;;;27.63;17.33;;;;;;;;;;5046067;28;20037;-71
2023/07/09 07:48:27;;;;;;;24.77;16.23;;;;;;;;;;5038883;28;21577;-71
2023/07/09 07:50:59;;;;;;;23.27;16.80;;;;;;;;;;5049595;28;20029;-71
2023/07/09 07:53:44;;;;;;;25.02;18.60;;;;;;;;;;5045399;28;20025;-72
2023/07/09 07:56:10;;;;;;;21.58;18.58;;;;;;;;;;5044959;28;20136;-71
2023/07/09 07:58:36;;;;;;;26.58;19.58;;;;;;;;;;5040810;28;20109;-70
2023/07/09 08:01:02;;;;;;;26.02;18.88;;;;;;;;;;5044868;28;20033;-71
2023/07/09 08:03:28;;;;;;;23.88;18.85;;;;;;;;;;5028454;28;20029;-71
2023/07/09 08:05:55;;;;;;;25.58;19.83;;;;;;;;;;5029551;28;20103;-71
2023/07/09 08:08:21;;;;;;;29.75;18.27;;;;;;;;;;5028032;28;20367;-71
2023/07/09 08:10:47;;;;;;;27.08;18.20;;;;;;;;;;5046091;28;20427;-70
2023/07/09 08:13:13;;;;;;;26.20;18.35;;;;;;;;;;5030512;28;20027;-69
2023/07/09 08:15:39;;;;;;;24.90;16.33;;;;;;;;;;5010757;28;20152;-71
2023/07/09 08:18:05;;;;;;;27.50;17.05;;;;;;;;;;5044004;28;20144;-70
2023/07/09 08:20:33;;;;;;;25.17;17.67;;;;;;;;;;5046085;28;20393;-69
2023/07/09 08:22:59;;;;;;;23.08;18.25;;;;;;;;;;5029223;28;20140;-71
2023/07/09 08:25:25;;;;;;;31.23;19.02;;;;;;;;;;5048804;28;20037;-70
2023/07/09 08:27:52;;;;;;;26.88;18.50;;;;;;;;;;5049517;28;20025;-69
2023/07/09 08:30:18;;;;;;;23.60;17.77;;;;;;;;;;5034072;28;20029;-70
2023/07/09 08:32:44;;;;;;;24.10;15.38;;;;;;;;;;5040174;28;20029;-71
2023/07/09 08:35:11;;;;;;;23.58;16.10;;;;;;;;;;5050498;28;20025;-69
2023/07/09 08:37:38;;;;;;;19.88;14.00;;;;;;;;;;5048176;28;20028;-69
2023/07/09 08:40:05;;;;;;;17.40;14.02;;;;;;;;;;5052911;28;20399;-69
2023/07/09 08:42:38;;;;;;;23.83;15.07;;;;;;;;;;5052303;28;20043;-70
2023/07/09 08:45:15;;;;;;;28.30;16.33;;;;;;;;;;5034420;28;20093;-70
2023/07/09 08:47:44;;;;;;;20.25;15.85;;;;;;;;;;5049522;28;20089;-69
2023/07/09 08:50:13;;;;;;;25.17;18.75;;;;;;;;;;5044840;28;20029;-70
2023/07/09 08:52:41;;;;;;;26.08;20.10;;;;;;;;;;5034011;28;20110;-69
2023/07/09 08:55:21;;;;;;;24.60;19.33;;;;;;;;;;5044654;28;20034;-69
2023/07/09 08:57:50;;;;;;;27.10;20.88;;;;;;;;;;5047316;28;20028;-70
2023/07/09 09:00:28;;;;;;;28.75;20.42;;;;;;;;;;5025243;28;20037;-70
2023/07/09 09:02:59;;;;;;;31.15;21.08;;;;;;;;;;5040048;28;20033;-68
2023/07/09 09:05:25;;;;;;;22.98;19.27;;;;;;;;;;5047798;28;20047;-67
2023/07/09 09:07:55;;;;;;;23.80;19.23;;;;;;;;;;5043315;28;20036;-68
2023/07/09 09:10:30;;;;;;;22.95;16.70;;;;;;;;;;5045555;28;21136;-69
2023/07/09 09:13:28;;;;;;;29.38;16.17;;;;;;;;;;5045882;28;20076;-69
2023/07/09 09:15:57;;;;;;;24.27;15.35;;;;;;;;;;5003044;28;20033;-69
2023/07/09 09:18:25;;;;;;;19.40;13.25;;;;;;;;;;5046511;28;20052;-70
2023/07/09 09:20:53;;;;;;;;;;;;;;;;;;5048234;28;20048;-70
2023/07/09 09:23:19;;;;;;;19.83;13.57;;;;;;;;;;5048619;28;19955;-69
2023/07/09 09:25:49;;;;;;;18.20;13.63;;;;;;;;;;5031736;28;20116;-69
2023/07/09 09:28:15;;;;;;;22.52;12.73;;;;;;;;;;5030012;28;20123;-70
2023/07/09 09:30:41;;;;;;;17.58;11.85;;;;;;;;;;5030702;28;20120;-69
2023/07/09 09:33:09;;;;;;;17.80;12.07;;;;;;;;;;5032928;28;20118;-71
2023/07/09 09:35:47;;;;;;;15.55;12.13;;;;;;;;;;5050931;28;20021;-69
2023/07/09 09:38:18;;;;;;;22.80;11.10;;;;;;;;;;5052137;28;20117;-69
2023/07/09 09:40:44;;;;;;;20.77;13.73;;;;;;;;;;5052010;28;20041;-69
2023/07/09 09:43:20;;;;;;;14.57;11.32;;;;;;;;;;5033881;28;20044;-70
2023/07/09 09:45:49;;;;;;;20.70;11.75;;;;;;;;;;5051489;28;20036;-70
2023/07/09 09:48:28;;;;;;;18.60;11.73;;;;;;;;;;5051952;28;20036;-70
2023/07/09 09:50:57;;;;;;;17.50;12.38;;;;;;;;;;5051120;28;20028;-70
2023/07/09 09:53:24;;;;;;;22.25;13.18;;;;;;;;;;5040660;28;20029;-70
2023/07/09 09:55:53;;;;;;;20.75;13.90;;;;;;;;;;5050993;28;20024;-71
2023/07/09 09:58:19;;;;;;;18.23;14.10;;;;;;;;;;5033518;28;20045;-69
2023/07/09 10:00:52;;;;;;;17.25;13.80;;;;;;;;;;5033260;28;20099;-69
2023/07/09 10:03:19;;;;;;;21.00;15.27;;;;;;;;;;5051374;28;20116;-70
2023/07/09 10:05:58;;;;;;;25.90;14.77;;;;;;;;;;5033689;28;20517;-69
2023/07/09 10:08:27;;;;;;;25.90;14.38;;;;;;;;;;5051708;28;20033;-69
2023/07/09 10:10:54;;;;;;;20.63;15.45;;;;;;;;;;5051853;28;20363;-70
2023/07/09 10:13:23;;;;;;;22.60;16.00;;;;;;;;;;5049860;28;20120;-69
2023/07/09 10:15:59;;;;;;;23.00;15.03;;;;;;;;;;5050594;28;20032;-69
2023/07/09 10:18:42;;;;;;;20.10;15.95;;;;;;;;;;5050488;28;20063;-69
2023/07/09 10:21:15;;;;;;;19.42;14.70;;;;;;;;;;5049378;28;20043;-69
2023/07/09 10:23:48;;;;;;;21.80;14.30;;;;;;;;;;5050123;28;20029;-69
2023/07/09 10:26:43;;;;;;;15.63;10.98;;;;;;;;;;5050495;28;20060;-70
2023/07/09 10:29:12;;;;;;;18.25;11.70;;;;;;;;;;5040589;28;20037;-70
2023/07/09 10:31:44;;;;;;;14.10;10.60;;;;;;;;;;5050140;28;20033;-70
2023/07/09 10:34:13;;;;;;;17.48;9.82;;;;;;;;;;5051612;28;20029;-69
2023/07/09 10:36:51;;;;;;;14.02;9.57;;;;;;;;;;5050783;28;20060;-69
2023/07/09 10:39:17;;;;;;;15.65;9.20;;;;;;;;;;5050540;28;20044;-69
2023/07/09 10:41:44;;;;;;;16.25;9.35;;;;;;;;;;5050446;28;20017;-69
2023/07/09 10:44:35;;;;;;;14.95;10.25;;;;;;;;;;5049329;28;20122;-70
2023/07/09 10:47:06;;;;;;;16.00;10.02;;;;;;;;;;5050188;28;20045;-70
2023/07/09 10:49:36;;;;;;;14.23;10.48;;;;;;;;;;5049049;28;20078;-69
2023/07/09 10:52:08;;;;;;;19.20;10.45;;;;;;;;;;5049848;28;20126;-69
2023/07/09 10:54:38;;;;;;;16.48;10.40;;;;;;;;;;5035319;28;20474;-70
2023/07/09 10:57:18;;;;;;;14.23;10.95;;;;;;;;;;5053371;28;20029;-69
2023/07/09 10:59:46;;;;;;;23.40;10.75;;;;;;;;;;5052378;28;20033;-70
2023/07/09 11:02:18;;;;;;;14.13;10.60;;;;;;;;;;5052621;28;20474;-69
2023/07/09 11:04:55;;;;;;;16.05;11.73;;;;;;;;;;5053296;28;20090;-68
2023/07/09 11:07:45;;;;;;;14.02;11.40;;;;;;;;;;5051513;28;20394;-70
2023/07/09 11:10:18;;;;;;;16.17;11.65;;;;;;;;;;5025296;28;20064;-70
2023/07/09 11:12:46;;;;;;;20.08;10.68;;;;;;;;;;5018576;28;20025;-70
2023/07/09 11:15:17;;;;;;;14.98;11.00;;;;;;;;;;5049360;28;20029;-70
2023/07/09 11:17:45;;;;;;;15.23;10.82;;;;;;;;;;5049403;28;20146;-71
2023/07/09 11:20:19;;;;;;;16.25;10.75;;;;;;;;;;5050246;28;20040;-70
2023/07/09 11:22:52;;;;;;;16.95;10.15;;;;;;;;;;5049116;28;20043;-70
2023/07/09 11:25:27;;;;;;;13.52;8.75;;;;;;;;;;5049241;28;20029;-70
2023/07/09 11:27:56;;;;;;;13.20;9.20;;;;;;;;;;5049974;28;20051;-70
2023/07/09 11:30:27;;;;;;;15.35;8.43;;;;;;;;;;5050705;28;20021;-70
2023/07/09 11:32:56;;;;;;;11.02;7.68;;;;;;;;;;5049116;28;20029;-70
2023/07/09 11:35:25;;;;;;;12.20;6.93;;;;;;;;;;5047363;28;20033;-70
2023/07/09 11:37:53;;;;;;;12.32;6.22;;;;;;;;;;5042991;28;20339;-68
2023/07/09 11:40:19;;;;;;;12.43;5.60;;;;;;;;;;5048357;28;20264;-70
2023/07/09 11:42:51;;;;;;;12.07;5.40;;;;;;;;;;5046769;28;20029;-68
2023/07/09 11:45:28;;;;;;;10.18;5.93;;;;;;;;;;5047425;28;20029;-71
2023/07/09 11:48:06;;;;;;;10.40;6.32;;;;;;;;;;5025780;28;20543;-68
2023/07/09 11:50:36;;;;;;;11.13;6.82;;;;;;;;;;5044404;28;20290;-70
2023/07/09 11:53:13;;;;;;;11.63;7.22;;;;;;;;;;5028882;28;20021;-69
2023/07/09 11:55:40;;;;;;;13.65;7.50;;;;;;;;;;5044903;28;20025;-73
2023/07/09 11:58:08;;;;;;;11.93;7.65;;;;;;;;;;5050461;28;20060;-69
2023/07/09 12:00:51;;;;;;;11.30;6.53;;;;;;;;;;5046887;28;20078;-70
2023/07/09 12:03:34;;;;;;;10.32;7.55;;;;;;;;;;5044292;28;20043;-69
2023/07/09 12:06:03;;;;;;;10.55;7.72;;;;;;;;;;5048046;28;20036;-68
2023/07/09 12:08:33;;;;;;;14.40;7.07;;;;;;;;;;5048922;28;20144;-69
2023/07/09 12:10:59;;;;;;;11.27;6.65;;;;;;;;;;5047888;28;20074;-70
2023/07/09 12:13:26;;;;;;;9.57;5.40;;;;;;;;;;5047578;28;20025;-72
2023/07/09 12:15:52;;;;;;;7.80;5.10;;;;;;;;;;5049699;28;20040;-70
2023/07/09 12:18:18;;;;;;;8.18;5.13;;;;;;;;;;5045123;28;20056;-70
2023/07/09 12:20:52;;;;;;;9.15;5.38;;;;;;;;;;5045232;28;20052;-69
2023/07/09 12:23:27;;;;;;;11.77;5.05;;;;;;;;;;5040426;28;20037;-71
2023/07/09 12:25:54;;;;;;;8.50;5.10;;;;;;;;;;5038522;28;20021;-69
2023/07/09 12:28:21;;;;;;;6.75;4.07;;;;;;;;;;5040040;28;20056;-70
2023/07/09 12:30:47;;;;;;;17.55;4.68;;;;;;;;;;5045783;28;20029;-70
2023/07/09 12:33:17;;;;;;;11.43;4.82;;;;;;;;;;5047938;28;20037;-70
2023/07/09 12:35:43;;;;;;;11.17;5.10;;;;;;;;;;5045995;28;20385;-70
2023/07/09 12:38:29;;;;;;;9.15;5.15;;;;;;;;;;5047095;28;20104;-70
2023/07/09 12:40:56;;;;;;;7.75;4.80;;;;;;;;;;5048797;28;20041;-70
2023/07/09 12:43:25;;;;;;;7.22;4.70;;;;;;;;;;5046640;28;20033;-70
2023/07/09 12:45:52;;;;;;;8.27;5.20;;;;;;;;;;5047862;28;20449;-70
2023/07/09 12:48:25;;;;;;;8.90;5.05;;;;;;;;;;5048887;28;20033;-70
2023/07/09 12:50:51;;;;;;;6.93;4.85;;;;;;;;;;5048186;28;20123;-70
2023/07/09 12:53:23;;;;;;;12.20;5.10;;;;;;;;;;5044573;28;20033;-69
2023/07/09 12:55:50;;;;;;;8.10;4.95;;;;;;;;;;5040463;28;20033;-69
2023/07/09 12:58:20;;;;;;;9.25;4.78;;;;;;;;;;5027612;28;20065;-69
2023/07/09 13:00:51;;;;;;;7.72;5.32;;;;;;;;;;5048072;28;20039;-69
2023/07/09 13:03:21;;;;;;;10.45;5.50;;;;;;;;;;5047073;28;20411;-70
2023/07/09 13:06:13;;;;;;;9.27;5.43;;;;;;;;;;5048315;28;20055;-70
2023/07/09 13:08:43;;;;;;;10.02;5.57;;;;;;;;;;5007417;28;20060;-69
2023/07/09 13:11:17;;;;;;;9.98;5.65;;;;;;;;;;5039313;28;20152;-68
2023/07/09 13:13:54;;;;;;;9.98;5.18;;;;;;;;;;5046484;28;20170;-71
2023/07/09 13:16:20;;;;;;;9.35;4.85;;;;;;;;;;5050486;28;20079;-70
2023/07/09 13:18:46;;;;;;;7.63;3.08;;;;;;;;;;5034402;28;20120;-69
2023/07/09 13:21:16;;;;;;;17.52;3.72;;;;;;;;;;5051457;28;20433;-69
2023/07/09 13:23:42;;;;;;;8.25;3.28;;;;;;;;;;5047961;28;20033;-70
2023/07/09 13:26:09;;;;;;;11.20;3.72;;;;;;;;;;5050419;28;20521;-70
2023/07/09 13:28:35;;;;;;;14.13;4.70;;;;;;;;;;5034500;28;20040;-70
2023/07/09 13:31:08;;;;;;;17.83;5.25;;;;;;;;;;5049105;28;20428;-71
2023/07/09 13:33:36;;;;;;;15.95;5.55;;;;;;;;;;5049150;28;20029;-70
2023/07/09 13:36:02;;;;;;;10.60;5.90;;;;;;;;;;5048050;28;20083;-70
2023/07/09 13:38:29;;;;;;;12.40;5.15;;;;;;;;;;5040161;28;20028;-70
2023/07/09 13:40:56;;;;;;;12.45;5.18;;;;;;;;;;5012648;28;20100;-71
2023/07/09 13:43:30;;;;;;;11.50;5.47;;;;;;;;;;5051019;28;20494;-71
2023/07/09 13:45:57;;;;;;;11.45;5.25;;;;;;;;;;5032537;28;20067;-70
2023/07/09 13:48:23;;;;;;;10.40;5.00;;;;;;;;;;5029555;28;20428;-69
2023/07/09 13:50:50;;;;;;;14.80;5.95;;;;;;;;;;5033201;28;20021;-69
2023/07/09 13:53:18;;;;;;;21.85;5.70;;;;;;;;;;5055166;28;20044;-69
2023/07/09 13:55:44;;;;;;;12.30;5.28;;;;;;;;;;5049204;28;20033;-71
2023/07/09 13:58:11;;;;;;;13.18;5.75;;;;;;;;;;5051057;28;20036;-69
2023/07/09 14:00:38;;;;;;;14.68;5.18;;;;;;;;;;5051811;28;20029;-69
2023/07/09 14:03:09;;;;;;;15.25;4.97;;;;;;;;;;5052668;28;20393;-69
2023/07/09 14:05:35;;;;;;;11.98;4.88;;;;;;;;;;5055839;28;20029;-70
2023/07/09 14:08:01;;;;;;;13.57;5.18;;;;;;;;;;5046592;28;20037;-73
2023/07/09 14:10:28;;;;;;;13.30;5.20;;;;;;;;;;5043150;28;20064;-69
2023/07/09 14:12:56;;;;;;;14.38;5.30;;;;;;;;;;5048069;28;20029;-69
2023/07/09 14:15:22;;;;;;;13.15;5.00;;;;;;;;;;5044180;28;20052;-71
2023/07/09 14:17:49;;;;;;;14.02;5.35;;;;;;;;;;5053962;28;20081;-70
2023/07/09 14:20:17;;;;;;;14.52;5.40;;;;;;;;;;5048664;28;20044;-72
2023/07/09 14:22:44;;;;;;;16.05;5.38;;;;;;;;;;5030467;28;20070;-69
2023/07/09 14:25:36;;;;;;;17.90;5.53;;;;;;;;;;5039061;28;20026;-68
2023/07/09 14:28:08;;;;;;;17.27;5.47;;;;;;;;;;5049973;28;20043;-69
2023/07/09 14:30:34;;;;;;;16.63;6.10;;;;;;;;;;5040828;28;20017;-69